createdAt,value
2019-04-05T00:00:49.877Z,74.97
2019-04-05T00:03:19.401Z,74.72
2019-04-05T00:05:48.759Z,74.72
2019-04-05T00:08:18.097Z,74.47
2019-04-05T00:10:47.738Z,74.24
2019-04-05T00:13:17.149Z,73.57
2019-04-05T00:15:46.614Z,73.40
2019-04-05T00:18:16.158Z,73.36
2019-04-05T00:20:45.564Z,73.13
2019-04-05T00:23:14.830Z,73.32
2019-04-05T00:25:44.271Z,72.96
2019-04-05T00:28:13.610Z,72.78
2019-04-05T00:30:42.914Z,72.70
2019-04-05T00:33:12.306Z,72.10
2019-04-05T00:35:41.662Z,72.33
2019-04-05T00:38:11.106Z,72.27
2019-04-05T00:40:40.705Z,71.82
2019-04-05T00:43:10.107Z,72.21
2019-04-05T00:45:39.420Z,72.47
2019-04-05T00:48:08.833Z,72.08
2019-04-05T00:50:38.544Z,71.97
2019-04-05T00:53:07.845Z,72.02
2019-04-05T00:55:37.661Z,71.77
2019-04-05T00:58:07.032Z,71.83
2019-04-05T01:00:36.598Z,71.78
2019-04-05T01:03:06.164Z,72.00
2019-04-05T01:05:35.613Z,71.75
2019-04-05T01:08:05.022Z,71.54
2019-04-05T01:10:34.643Z,71.65
2019-04-05T01:13:04.225Z,72.05
2019-04-05T01:15:40.882Z,72.21
2019-04-05T01:18:05.674Z,72.12
2019-04-05T01:20:38.326Z,71.84
2019-04-05T01:23:07.959Z,71.65
2019-04-05T01:25:37.953Z,72.05
2019-04-05T01:28:07.580Z,72.57
2019-04-05T01:30:37.152Z,73.23
2019-04-05T01:33:06.528Z,73.57
2019-04-05T01:35:35.871Z,73.47
2019-04-05T01:38:05.401Z,73.26
2019-04-05T01:40:36.584Z,72.83
2019-04-05T01:43:06.490Z,72.77
2019-04-05T01:45:36.081Z,73.09
2019-04-05T01:48:05.645Z,73.18
2019-04-05T01:50:35.190Z,73.04
2019-04-05T01:53:04.564Z,73.15
2019-04-05T01:55:33.888Z,73.23
2019-04-05T01:58:03.728Z,72.85
2019-04-05T02:00:33.232Z,71.48
2019-04-05T02:03:02.524Z,70.74
2019-04-05T02:05:31.929Z,70.71
2019-04-05T02:08:01.223Z,70.77
2019-04-05T02:10:30.588Z,71.29
2019-04-05T02:13:00.196Z,71.91
2019-04-05T02:15:31.663Z,72.23
2019-04-05T02:18:01.345Z,72.19
2019-04-05T02:20:30.891Z,72.42
2019-04-05T02:23:00.242Z,72.90
2019-04-05T02:25:29.813Z,73.19
2019-04-05T02:27:59.086Z,73.00
2019-04-05T02:30:28.794Z,72.96
2019-04-05T02:32:58.236Z,73.02
2019-04-05T02:35:27.816Z,72.66
2019-04-05T02:37:57.161Z,72.21
2019-04-05T02:40:27.255Z,72.02
2019-04-05T02:42:58.606Z,71.77
2019-04-05T02:45:31.523Z,71.76
2019-04-05T02:48:04.419Z,72.30
2019-04-05T02:50:36.674Z,72.62
2019-04-05T02:53:08.880Z,73.01
2019-04-05T02:55:40.372Z,73.28
2019-04-05T02:58:10.977Z,72.94
2019-04-05T03:00:41.113Z,73.01
2019-04-05T03:03:10.776Z,73.20
2019-04-05T03:05:40.594Z,73.33
2019-04-05T03:08:10.032Z,73.55
2019-04-05T03:11:07.924Z,73.61
2019-04-05T03:13:46.866Z,73.57
2019-04-05T03:16:21.080Z,73.39
2019-04-05T03:18:59.227Z,72.64
2019-04-05T03:21:30.371Z,72.48
2019-04-05T03:24:03.193Z,71.34
2019-04-05T03:26:35.355Z,72.12
2019-04-05T03:29:08.094Z,72.59
2019-04-05T03:31:37.982Z,72.78
2019-04-05T03:34:08.113Z,72.43
2019-04-05T03:36:38.647Z,72.51
2019-04-05T03:39:08.579Z,73.05
2019-04-05T03:41:37.943Z,72.98
2019-04-05T03:44:08.786Z,72.69
2019-04-05T03:46:38.220Z,72.48
2019-04-05T03:49:07.717Z,72.68
2019-04-05T03:51:37.264Z,72.94
2019-04-05T03:54:07.049Z,72.49
2019-04-05T03:56:38.310Z,72.80
2019-04-05T03:59:08.168Z,73.14
2019-04-05T04:01:37.583Z,73.24
2019-04-05T04:04:06.884Z,73.32
2019-04-05T04:06:36.525Z,73.61
2019-04-05T04:09:07.194Z,73.45
2019-04-05T04:11:37.385Z,73.35
2019-04-05T04:14:07.421Z,73.44
2019-04-05T04:16:37.326Z,73.49
2019-04-05T04:19:06.767Z,73.38
2019-04-05T04:21:42.753Z,73.41
2019-04-05T04:24:12.385Z,73.58
2019-04-05T04:26:43.148Z,73.72
2019-04-05T04:29:13.688Z,73.74
2019-04-05T04:31:43.075Z,73.62
2019-04-05T04:34:12.778Z,73.59
2019-04-05T04:36:42.646Z,73.71
2019-04-05T04:39:12.347Z,73.55
2019-04-05T04:41:41.801Z,73.45
2019-04-05T04:44:11.335Z,73.65
2019-04-05T04:46:40.780Z,73.85
2019-04-05T04:49:10.391Z,73.42
2019-04-05T04:51:40.141Z,73.37
2019-04-05T04:54:09.702Z,73.60
2019-04-05T04:56:39.305Z,73.56
2019-04-05T04:59:09.044Z,73.39
2019-04-05T05:01:38.465Z,73.46
2019-04-05T05:04:08.438Z,73.58
2019-04-05T05:06:38.007Z,73.40
2019-04-05T05:09:07.850Z,73.43
2019-04-05T05:11:37.981Z,73.87
2019-04-05T05:14:07.692Z,73.91
2019-04-05T05:16:37.231Z,74.05
2019-04-05T05:19:07.077Z,73.87
2019-04-05T05:21:37.021Z,74.02
2019-04-05T05:24:06.612Z,74.16
2019-04-05T05:26:36.001Z,73.49
2019-04-05T05:29:05.594Z,73.26
2019-04-05T05:31:35.153Z,72.31
2019-04-05T05:34:05.061Z,71.69
2019-04-05T05:36:34.656Z,70.71
2019-04-05T05:39:06.056Z,70.27
2019-04-05T05:41:35.789Z,69.81
2019-04-05T05:44:05.281Z,70.09
2019-04-05T05:46:34.649Z,69.52
2019-04-05T05:49:04.258Z,70.16
2019-04-05T05:51:34.030Z,70.15
2019-04-05T05:54:03.305Z,68.90
2019-04-05T05:56:32.721Z,69.01
2019-04-05T05:59:02.033Z,69.12
2019-04-05T06:01:31.320Z,68.88
2019-04-05T06:04:00.828Z,67.98
2019-04-05T06:06:30.220Z,66.68
2019-04-05T06:08:59.503Z,66.03
2019-04-05T06:11:28.968Z,65.39
2019-04-05T06:13:58.339Z,63.74
2019-04-05T06:16:27.639Z,63.97
2019-04-05T06:18:56.967Z,63.17
2019-04-05T06:21:26.293Z,62.72
2019-04-05T06:23:55.514Z,63.08
2019-04-05T06:26:24.876Z,62.52
2019-04-05T06:28:54.344Z,61.43
2019-04-05T06:31:23.770Z,60.63
2019-04-05T06:33:53.055Z,60.91
2019-04-05T06:36:22.378Z,61.27
2019-04-05T06:38:51.643Z,60.68
2019-04-05T06:41:21.147Z,60.22
2019-04-05T06:43:50.467Z,58.75
2019-04-05T06:46:19.768Z,58.73
2019-04-05T06:48:49.277Z,58.60
2019-04-05T06:51:18.649Z,58.06
2019-04-05T06:53:47.947Z,56.65
2019-04-05T06:56:17.478Z,56.81
2019-04-05T06:58:46.822Z,55.86
2019-04-05T07:01:16.235Z,56.90
2019-04-05T07:03:45.805Z,57.90
2019-04-05T07:06:15.129Z,56.88
2019-04-05T07:08:53.671Z,56.13
2019-04-05T07:11:15.566Z,55.19
2019-04-05T07:13:44.827Z,55.83
2019-04-05T07:16:14.127Z,57.47
2019-04-05T07:18:43.447Z,58.59
2019-04-05T07:21:12.789Z,56.21
2019-04-05T07:23:42.134Z,58.30
2019-04-05T07:26:11.409Z,58.80
2019-04-05T07:28:40.697Z,58.16
2019-04-05T07:31:09.980Z,59.10
2019-04-05T07:33:39.358Z,58.07
2019-04-05T07:36:08.737Z,56.57
2019-04-05T07:38:38.053Z,56.71
2019-04-05T07:41:07.391Z,57.04
2019-04-05T07:43:36.753Z,55.37
2019-04-05T07:46:06.004Z,55.19
2019-04-05T07:48:44.632Z,57.25
2019-04-05T07:51:07.200Z,54.10
2019-04-05T07:53:36.745Z,56.39
2019-04-05T07:56:06.039Z,55.36
2019-04-05T07:58:35.420Z,54.76
2019-04-05T08:01:06.409Z,53.79
2019-04-05T08:03:35.732Z,53.58
2019-04-05T08:06:05.197Z,52.57
2019-04-05T08:08:49.718Z,53.62
2019-04-05T08:11:19.317Z,52.21
2019-04-05T08:13:50.090Z,51.42
2019-04-05T08:16:19.425Z,51.00
2019-04-05T08:18:57.796Z,49.06
2019-04-05T08:21:19.980Z,52.23
2019-04-05T08:23:49.338Z,53.17
2019-04-05T08:26:18.713Z,53.11
2019-04-05T08:28:48.304Z,53.74
2019-04-05T08:31:17.606Z,53.06
2019-04-05T08:33:46.986Z,53.05
2019-04-05T08:36:16.528Z,54.84
2019-04-05T08:38:45.777Z,52.75
2019-04-05T08:41:15.107Z,53.67
2019-04-05T08:43:47.041Z,51.91
2019-04-05T08:46:15.717Z,51.46
2019-04-05T08:48:45.276Z,53.09
2019-04-05T08:51:14.760Z,48.40
2019-04-05T08:53:44.076Z,47.92
2019-04-05T08:56:13.453Z,49.00
2019-04-05T08:58:42.765Z,47.09
2019-04-05T09:01:12.049Z,46.76
2019-04-05T09:03:41.563Z,46.93
2019-04-05T09:06:11.196Z,47.80
2019-04-05T09:08:40.508Z,47.47
2019-04-05T09:11:09.865Z,47.85
2019-04-05T09:13:39.201Z,46.65
2019-04-05T09:16:11.515Z,46.91
2019-04-05T09:18:39.491Z,44.87
2019-04-05T09:21:10.219Z,44.63
2019-04-05T09:23:39.599Z,46.90
2019-04-05T09:26:09.155Z,49.71
2019-04-05T09:28:38.465Z,49.09
2019-04-05T09:31:07.776Z,49.21
2019-04-05T09:33:37.301Z,45.46
2019-04-05T09:36:06.601Z,43.09
2019-04-05T09:38:35.919Z,44.00
2019-04-05T09:41:05.498Z,44.37
2019-04-05T09:43:34.820Z,42.36
2019-04-05T09:46:04.219Z,43.68
2019-04-05T09:48:33.813Z,47.11
2019-04-05T09:51:03.229Z,42.59
2019-04-05T09:53:32.512Z,41.87
2019-04-05T09:56:02.103Z,42.03
2019-04-05T09:58:31.418Z,42.80
2019-04-05T10:01:00.767Z,42.43
2019-04-05T10:03:30.325Z,43.58
2019-04-05T10:05:59.611Z,41.95
2019-04-05T10:08:28.857Z,42.85
2019-04-05T10:10:58.699Z,45.65
2019-04-05T10:13:28.004Z,45.73
2019-04-05T10:15:57.346Z,43.79
2019-04-05T10:18:26.816Z,42.27
2019-04-05T10:20:56.204Z,43.60
2019-04-05T10:23:25.509Z,45.56
2019-04-05T10:25:54.867Z,45.15
2019-04-05T10:28:24.168Z,43.93
2019-04-05T10:30:53.471Z,42.54
2019-04-05T10:33:23.056Z,43.78
2019-04-05T10:35:52.393Z,47.50
2019-04-05T10:38:21.719Z,45.45
2019-04-05T10:40:51.176Z,43.67
2019-04-05T10:43:20.535Z,44.12
2019-04-05T10:45:49.852Z,43.28
2019-04-05T10:48:19.433Z,43.54
2019-04-05T10:50:48.735Z,44.12
2019-04-05T10:53:18.100Z,43.52
2019-04-05T10:55:47.633Z,41.55
2019-04-05T10:58:16.950Z,42.96
2019-04-05T11:00:46.215Z,44.72
2019-04-05T11:03:15.768Z,45.93
2019-04-05T11:05:45.086Z,44.79
2019-04-05T11:08:14.382Z,46.62
2019-04-05T11:10:43.922Z,47.64
2019-04-05T11:13:13.247Z,45.98
2019-04-05T11:15:42.542Z,46.00
2019-04-05T11:18:12.112Z,49.03
2019-04-05T11:20:41.383Z,45.32
2019-04-05T11:23:10.646Z,45.88
2019-04-05T11:25:40.211Z,47.10
2019-04-05T11:28:09.866Z,47.53
2019-04-05T11:30:47.056Z,49.20
2019-04-05T11:33:19.458Z,51.44
2019-04-05T11:35:47.784Z,54.02
2019-04-05T11:38:17.948Z,54.86
2019-04-05T11:40:47.748Z,57.55
2019-04-05T11:43:18.009Z,57.34
2019-04-05T11:45:48.528Z,57.33
2019-04-05T11:48:18.794Z,55.28
2019-04-05T11:50:48.149Z,55.51
2019-04-05T11:53:17.571Z,56.91
2019-04-05T11:55:47.078Z,56.98
2019-04-05T11:58:16.416Z,57.85
2019-04-05T12:01:07.931Z,57.91
2019-04-05T12:03:37.386Z,57.64
2019-04-05T12:06:06.689Z,57.61
2019-04-05T12:08:36.159Z,57.65
2019-04-05T12:11:05.648Z,57.10
2019-04-05T12:13:34.951Z,56.79
2019-04-05T12:16:06.007Z,57.11
2019-04-05T12:18:35.521Z,56.90
2019-04-05T12:21:05.819Z,56.29
2019-04-05T12:23:35.245Z,56.26
2019-04-05T12:26:05.005Z,56.21
2019-04-05T12:28:34.464Z,56.26
2019-04-05T12:31:03.782Z,56.46
2019-04-05T12:33:33.118Z,55.81
2019-04-05T12:36:02.443Z,56.56
2019-04-05T12:38:33.030Z,57.63
2019-04-05T12:41:03.904Z,57.22
2019-04-05T12:43:33.509Z,57.67
2019-04-05T12:46:03.094Z,56.86
2019-04-05T12:48:32.472Z,57.87
2019-04-05T12:51:03.822Z,57.40
2019-04-05T12:53:32.861Z,57.10
2019-04-05T12:56:02.328Z,58.42
2019-04-05T12:58:32.877Z,59.47
2019-04-05T13:01:02.523Z,57.93
2019-04-05T13:03:31.822Z,58.49
2019-04-05T13:06:01.084Z,59.40
2019-04-05T13:08:30.576Z,60.03
2019-04-05T13:10:59.954Z,60.21
2019-04-05T13:13:29.259Z,61.04
2019-04-05T13:15:59.483Z,60.43
2019-04-05T13:18:31.566Z,61.13
2019-04-05T13:21:00.999Z,61.06
2019-04-05T13:23:31.256Z,60.05
2019-04-05T13:26:00.512Z,61.26
2019-04-05T13:28:30.129Z,61.23
2019-04-05T13:30:59.450Z,60.79
2019-04-05T13:33:29.122Z,61.34
2019-04-05T13:35:58.738Z,62.13
2019-04-05T13:38:29.851Z,62.80
2019-04-05T13:41:01.222Z,63.27
2019-04-05T13:43:31.847Z,63.16
2019-04-05T13:46:01.173Z,63.10
2019-04-05T13:48:30.518Z,64.10
2019-04-05T13:50:59.937Z,63.41
2019-04-05T13:53:29.553Z,63.52
2019-04-05T13:55:58.859Z,64.03
2019-04-05T13:58:28.153Z,64.30
2019-04-05T14:00:57.733Z,64.70
2019-04-05T14:03:27.061Z,65.32
2019-04-05T14:05:56.459Z,64.20
2019-04-05T14:08:26.037Z,64.04
2019-04-05T14:10:55.346Z,64.95
2019-04-05T14:13:24.722Z,64.43
2019-04-05T14:15:54.244Z,64.68
2019-04-05T14:18:23.500Z,64.98
2019-04-05T14:20:52.748Z,65.69
2019-04-05T14:23:23.921Z,65.09
2019-04-05T14:25:53.357Z,65.56
2019-04-05T14:28:22.692Z,64.71
2019-04-05T14:30:52.335Z,65.03
2019-04-05T14:33:24.535Z,65.16
2019-04-05T14:35:54.729Z,64.83
2019-04-05T14:38:23.953Z,64.54
2019-04-05T14:40:53.218Z,64.88
2019-04-05T14:43:22.516Z,65.13
2019-04-05T14:45:51.891Z,65.20
2019-04-05T14:48:21.178Z,64.46
2019-04-05T14:50:50.666Z,65.24
2019-04-05T14:53:20.262Z,64.97
2019-04-05T14:55:49.653Z,65.72
2019-04-05T14:58:19.367Z,65.02
2019-04-05T15:00:48.834Z,65.95
2019-04-05T15:03:18.155Z,66.27
2019-04-05T15:05:47.417Z,66.48
2019-04-05T15:08:20.455Z,67.06
2019-04-05T15:10:47.979Z,66.81
2019-04-05T15:13:17.307Z,66.57
2019-04-05T15:15:46.762Z,67.02
2019-04-05T15:18:16.071Z,66.62
2019-04-05T15:20:46.143Z,66.71
2019-04-05T15:23:15.786Z,66.89
2019-04-05T15:25:45.183Z,67.22
2019-04-05T15:28:14.474Z,66.79
2019-04-05T15:30:43.898Z,66.57
2019-04-05T15:33:13.180Z,66.09
2019-04-05T15:35:42.580Z,66.66
2019-04-05T15:38:11.958Z,66.61
2019-04-05T15:40:41.252Z,65.94
2019-04-05T15:43:10.595Z,66.46
2019-04-05T15:45:42.556Z,66.17
2019-04-05T15:48:10.865Z,66.44
2019-04-05T15:50:40.184Z,65.84
2019-04-05T15:53:09.749Z,64.91
2019-04-05T15:55:39.112Z,64.24
2019-04-05T15:58:08.472Z,63.49
2019-04-05T16:00:45.140Z,63.50
2019-04-05T16:03:14.878Z,61.84
2019-04-05T16:05:45.979Z,61.12
2019-04-05T16:08:18.131Z,60.64
2019-04-05T16:10:47.815Z,60.00
2019-04-05T16:13:17.060Z,60.04
2019-04-05T16:15:46.414Z,58.59
2019-04-05T16:18:16.036Z,58.56
2019-04-05T16:20:45.364Z,58.00
2019-04-05T16:23:14.674Z,57.00
2019-04-05T16:25:44.223Z,56.20
2019-04-05T16:28:13.613Z,55.98
2019-04-05T16:30:43.021Z,56.13
2019-04-05T16:33:12.310Z,56.54
2019-04-05T16:35:41.561Z,56.37
2019-04-05T16:38:10.883Z,56.91
2019-04-05T16:40:40.318Z,58.22
2019-04-05T16:43:09.601Z,59.00
2019-04-05T16:45:38.962Z,59.87
2019-04-05T16:48:08.367Z,61.01
2019-04-05T16:50:37.735Z,61.90
2019-04-05T16:53:07.097Z,62.20
2019-04-05T16:55:36.487Z,63.44
2019-04-05T16:58:05.827Z,64.40
2019-04-05T17:00:35.305Z,64.69
2019-04-05T17:03:04.863Z,65.16
2019-04-05T17:05:34.189Z,65.50
2019-04-05T17:08:03.674Z,65.65
2019-04-05T17:10:33.867Z,65.35
2019-04-05T17:13:03.134Z,65.16
2019-04-05T17:15:32.417Z,64.80
2019-04-05T17:18:01.688Z,65.26
2019-04-05T17:20:30.958Z,64.94
2019-04-05T17:23:00.322Z,64.50
2019-04-05T17:25:29.720Z,63.58
2019-04-05T17:27:59.011Z,63.63
2019-04-05T17:30:28.492Z,64.37
2019-04-05T17:32:57.847Z,64.14
2019-04-05T17:35:27.124Z,64.18
2019-04-05T17:37:56.437Z,64.02
2019-04-05T17:40:25.765Z,63.90
2019-04-05T17:42:55.065Z,63.94
2019-04-05T17:45:24.364Z,63.76
2019-04-05T17:47:53.869Z,64.61
2019-04-05T17:50:31.774Z,63.76
2019-04-05T17:53:11.933Z,64.00
2019-04-05T17:55:32.617Z,64.38
2019-04-05T17:58:03.624Z,64.77
2019-04-05T18:00:33.003Z,63.53
2019-04-05T18:03:02.359Z,63.25
2019-04-05T18:05:31.930Z,62.70
2019-04-05T18:08:01.252Z,62.27
2019-04-05T18:10:30.550Z,62.16
2019-04-05T18:13:00.152Z,61.58
2019-04-05T18:15:29.479Z,59.87
2019-04-05T18:17:58.813Z,59.22
2019-04-05T18:20:28.491Z,58.48
2019-04-05T18:22:57.776Z,57.94
2019-04-05T18:25:27.030Z,56.40
2019-04-05T18:27:56.528Z,56.15
2019-04-05T18:30:25.788Z,55.85
2019-04-05T18:32:55.030Z,54.60
2019-04-05T18:35:24.411Z,54.87
2019-04-05T18:37:53.928Z,54.39
2019-04-05T18:40:23.230Z,54.39
2019-04-05T18:42:52.790Z,53.66
2019-04-05T18:45:22.100Z,53.94
2019-04-05T18:47:51.350Z,53.99
2019-04-05T18:50:21.072Z,54.90
2019-04-05T18:52:50.401Z,55.18
2019-04-05T18:55:19.947Z,56.19
2019-04-05T18:57:49.417Z,56.97
2019-04-05T19:00:18.981Z,56.63
2019-04-05T19:02:48.278Z,56.59
2019-04-05T19:05:18.249Z,56.97
2019-04-05T19:07:47.843Z,57.33
2019-04-05T19:10:17.168Z,57.49
2019-04-05T19:12:47.375Z,56.38
2019-04-05T19:15:16.647Z,56.10
2019-04-05T19:17:45.903Z,56.51
2019-04-05T19:20:15.399Z,55.45
2019-04-05T19:22:44.702Z,55.60
2019-04-05T19:25:14.027Z,55.41
2019-04-05T19:27:43.556Z,55.54
2019-04-05T19:50:22.572Z,54.99
2019-04-05T19:52:52.119Z,54.97
2019-04-05T19:55:21.410Z,55.34
2019-04-05T19:57:50.774Z,56.00
2019-04-05T20:00:20.463Z,55.92
2019-04-05T20:02:49.856Z,56.35
2019-04-05T20:05:19.258Z,55.97
2019-04-05T20:07:48.819Z,55.77
2019-04-05T20:10:18.161Z,55.43
2019-04-05T20:12:47.477Z,55.25
2019-04-05T20:15:17.233Z,54.96
2019-04-05T20:17:46.526Z,55.19
2019-04-05T20:20:16.146Z,55.52
2019-04-05T20:22:45.592Z,55.78
2019-04-05T20:25:14.863Z,55.71
2019-04-05T20:27:44.185Z,55.57
2019-04-05T20:30:13.848Z,55.65
2019-04-05T20:32:43.099Z,55.63
2019-04-05T20:35:12.854Z,55.47
2019-04-05T20:37:42.180Z,55.70
2019-04-05T20:40:11.487Z,55.91
2019-04-05T20:42:40.876Z,56.14
2019-04-05T20:45:10.244Z,56.08
2019-04-05T20:47:39.542Z,56.34
2019-04-05T20:50:08.973Z,56.72
2019-04-05T20:52:38.285Z,57.71
2019-04-05T20:55:07.689Z,58.02
2019-04-05T20:57:37.048Z,58.64
2019-04-05T21:00:07.619Z,58.88
2019-04-05T21:02:36.917Z,59.35
2019-04-05T21:05:06.648Z,59.73
2019-04-05T21:07:36.122Z,60.39
2019-04-05T21:10:06.505Z,60.94
2019-04-05T21:12:35.790Z,60.68
2019-04-05T21:15:05.964Z,61.08
2019-04-05T21:17:35.313Z,60.59
2019-04-05T21:20:05.589Z,60.40
2019-04-05T21:22:35.102Z,60.59
2019-04-05T21:25:04.602Z,60.84
2019-04-05T21:27:33.890Z,61.13
2019-04-05T21:30:03.238Z,61.03
2019-04-05T21:32:32.518Z,61.41
2019-04-05T21:35:01.938Z,61.55
2019-04-05T21:37:31.204Z,61.33
2019-04-05T21:40:00.477Z,61.37
2019-04-05T21:42:29.808Z,61.56
2019-04-05T21:44:59.240Z,61.67
2019-04-05T21:47:28.518Z,61.52
2019-04-05T21:49:58.313Z,61.84
2019-04-05T21:52:28.364Z,62.25
2019-04-05T21:54:57.644Z,62.68
2019-04-05T21:57:26.925Z,62.51
2019-04-05T21:59:56.411Z,62.53
2019-04-05T22:02:25.874Z,62.58
2019-04-05T22:04:55.228Z,62.46
2019-04-05T22:07:24.714Z,62.68
2019-04-05T22:09:54.054Z,63.21
2019-04-05T22:12:26.775Z,62.82
2019-04-05T22:14:55.970Z,63.04
2019-04-05T22:17:25.238Z,63.57
2019-04-05T22:19:54.698Z,63.92
2019-04-05T22:22:24.002Z,64.35
2019-04-05T22:24:59.142Z,64.57
2019-04-05T22:27:24.428Z,64.71
2019-04-05T22:29:53.756Z,64.91
2019-04-05T22:32:23.082Z,65.26
2019-04-05T22:34:52.429Z,65.31
2019-04-05T22:37:21.722Z,65.15
2019-04-05T22:39:51.051Z,65.24
2019-04-05T22:42:20.592Z,65.78
2019-04-05T22:44:49.902Z,65.73
2019-04-05T22:47:19.311Z,66.07
2019-04-05T22:49:48.715Z,66.40
2019-04-05T22:52:18.012Z,66.63
2019-04-05T22:54:47.322Z,66.65
2019-04-05T22:57:16.786Z,66.64
2019-04-05T22:59:46.107Z,66.91
2019-04-05T23:02:15.465Z,66.92
2019-04-05T23:04:44.915Z,67.09
2019-04-05T23:07:15.230Z,67.24
2019-04-05T23:09:44.558Z,67.75
2019-04-05T23:12:14.027Z,67.91
2019-04-05T23:14:43.396Z,68.35
2019-04-05T23:17:12.689Z,68.50
2019-04-05T23:19:42.070Z,68.70
2019-04-05T23:22:11.424Z,68.93
2019-04-05T23:24:40.753Z,68.83
2019-04-05T23:27:10.150Z,69.16
2019-04-05T23:29:39.492Z,69.19
2019-04-05T23:32:08.770Z,69.48
2019-04-05T23:34:38.303Z,69.31
2019-04-05T23:37:07.604Z,69.41
2019-04-05T23:39:36.923Z,69.28
2019-04-05T23:42:06.313Z,69.47
2019-04-05T23:44:35.623Z,69.68
2019-04-05T23:47:04.888Z,69.89
2019-04-05T23:49:34.410Z,70.25
2019-04-05T23:52:03.766Z,70.63
2019-04-05T23:54:33.047Z,70.84
2019-04-05T23:57:02.370Z,70.80
2019-04-05T23:59:31.645Z,70.92
